sensor_id;sensor_type;location;lat;lon;timestamp;temperature;humidity
21602;DHT22;10963;50.934;4.668;2023-01-06T00:01:22;12.10;99.90
21602;DHT22;10963;50.934;4.668;2023-01-06T00:03:52;11.90;99.90
21602;DHT22;10963;50.934;4.668;2023-01-06T00:06:21;12.00;99.90
21602;DHT22;10963;50.934;4.668;2023-01-06T00:08:52;11.90;99.90
21602;DHT22;10963;50.934;4.668;2023-01-06T00:11:21;11.90;99.90
21602;DHT22;10963;50.934;4.668;2023-01-06T00:13:47;11.90;99.90
21602;DHT22;10963;50.934;4.668;2023-01-06T00:16:20;11.80;99.90
21602;DHT22;10963;50.934;4.668;2023-01-06T00:18:48;11.70;99.90
21602;DHT22;10963;50.934;4.668;2023-01-06T00:21:16;11.60;99.90
21602;DHT22;10963;50.934;4.668;2023-01-06T00:23:44;11.60;99.90
21602;DHT22;10963;50.934;4.668;2023-01-06T00:26:10;11.60;99.90
21602;DHT22;10963;50.934;4.668;2023-01-06T00:28:39;11.70;99.90
21602;DHT22;10963;50.934;4.668;2023-01-06T00:31:17;12.00;99.90
21602;DHT22;10963;50.934;4.668;2023-01-06T00:33:43;12.00;99.90
21602;DHT22;10963;50.934;4.668;2023-01-06T00:36:12;11.90;99.90
21602;DHT22;10963;50.934;4.668;2023-01-06T00:38:41;11.80;99.90
21602;DHT22;10963;50.934;4.668;2023-01-06T00:41:13;11.70;99.90
21602;DHT22;10963;50.934;4.668;2023-01-06T00:43:58;11.70;99.90
21602;DHT22;10963;50.934;4.668;2023-01-06T00:46:26;11.70;99.90
21602;DHT22;10963;50.934;4.668;2023-01-06T00:49:05;11.90;99.90
21602;DHT22;10963;50.934;4.668;2023-01-06T00:51:38;11.90;99.90
21602;DHT22;10963;50.934;4.668;2023-01-06T00:54:10;11.80;99.90
21602;DHT22;10963;50.934;4.668;2023-01-06T00:56:40;11.80;99.90
21602;DHT22;10963;50.934;4.668;2023-01-06T00:59:13;11.80;99.90
21602;DHT22;10963;50.934;4.668;2023-01-06T01:01:43;11.80;99.90
21602;DHT22;10963;50.934;4.668;2023-01-06T01:04:12;11.70;99.90
21602;DHT22;10963;50.934;4.668;2023-01-06T01:06:41;11.60;99.90
21602;DHT22;10963;50.934;4.668;2023-01-06T01:09:11;11.60;99.90
21602;DHT22;10963;50.934;4.668;2023-01-06T01:11:40;11.60;99.90
21602;DHT22;10963;50.934;4.668;2023-01-06T01:14:24;11.60;99.90
21602;DHT22;10963;50.934;4.668;2023-01-06T01:16:50;11.70;99.90
21602;DHT22;10963;50.934;4.668;2023-01-06T01:19:21;11.70;99.90
21602;DHT22;10963;50.934;4.668;2023-01-06T01:21:52;11.60;99.90
21602;DHT22;10963;50.934;4.668;2023-01-06T01:24:19;11.70;99.90
21602;DHT22;10963;50.934;4.668;2023-01-06T01:26:47;11.80;99.90
21602;DHT22;10963;50.934;4.668;2023-01-06T01:29:16;11.90;99.90
21602;DHT22;10963;50.934;4.668;2023-01-06T01:31:43;11.70;99.90
21602;DHT22;10963;50.934;4.668;2023-01-06T01:34:13;11.60;99.90
21602;DHT22;10963;50.934;4.668;2023-01-06T01:36:40;11.60;99.90
21602;DHT22;10963;50.934;4.668;2023-01-06T01:39:07;11.50;99.90
21602;DHT22;10963;50.934;4.668;2023-01-06T01:41:32;11.50;99.90
21602;DHT22;10963;50.934;4.668;2023-01-06T01:47:01;11.50;99.90
21602;DHT22;10963;50.934;4.668;2023-01-06T01:49:35;11.60;99.90
21602;DHT22;10963;50.934;4.668;2023-01-06T01:52:06;11.60;99.90
21602;DHT22;10963;50.934;4.668;2023-01-06T01:54:34;11.60;99.90
21602;DHT22;10963;50.934;4.668;2023-01-06T01:57:11;11.60;99.90
21602;DHT22;10963;50.934;4.668;2023-01-06T01:59:41;11.50;99.90
21602;DHT22;10963;50.934;4.668;2023-01-06T02:02:08;11.50;99.90
21602;DHT22;10963;50.934;4.668;2023-01-06T02:04:41;11.50;99.90
21602;DHT22;10963;50.934;4.668;2023-01-06T02:07:09;11.40;99.90
21602;DHT22;10963;50.934;4.668;2023-01-06T02:12:30;11.50;99.90
21602;DHT22;10963;50.934;4.668;2023-01-06T02:14:56;11.60;99.90
21602;DHT22;10963;50.934;4.668;2023-01-06T02:28:49;11.70;99.90
21602;DHT22;10963;50.934;4.668;2023-01-06T02:31:58;11.70;99.90
21602;DHT22;10963;50.934;4.668;2023-01-06T02:42:56;11.80;99.90
21602;DHT22;10963;50.934;4.668;2023-01-06T02:45:49;11.70;99.90
21602;DHT22;10963;50.934;4.668;2023-01-06T02:51:20;11.70;99.90
21602;DHT22;10963;50.934;4.668;2023-01-06T02:56:33;11.50;99.90
21602;DHT22;10963;50.934;4.668;2023-01-06T02:59:08;11.60;99.90
21602;DHT22;10963;50.934;4.668;2023-01-06T03:01:43;11.70;99.90
21602;DHT22;10963;50.934;4.668;2023-01-06T03:04:16;11.60;99.90
21602;DHT22;10963;50.934;4.668;2023-01-06T03:06:47;11.70;99.90
21602;DHT22;10963;50.934;4.668;2023-01-06T03:09:18;11.60;99.90
21602;DHT22;10963;50.934;4.668;2023-01-06T03:11:48;11.60;99.90
21602;DHT22;10963;50.934;4.668;2023-01-06T03:14:27;11.70;99.90
21602;DHT22;10963;50.934;4.668;2023-01-06T03:16:57;11.70;99.90
21602;DHT22;10963;50.934;4.668;2023-01-06T03:19:25;11.50;99.90
21602;DHT22;10963;50.934;4.668;2023-01-06T03:21:51;11.40;99.90
21602;DHT22;10963;50.934;4.668;2023-01-06T03:24:21;11.60;99.90
21602;DHT22;10963;50.934;4.668;2023-01-06T03:26:50;11.60;99.90
21602;DHT22;10963;50.934;4.668;2023-01-06T03:29:20;11.70;99.90
21602;DHT22;10963;50.934;4.668;2023-01-06T03:32:00;11.70;99.90
21602;DHT22;10963;50.934;4.668;2023-01-06T03:34:42;11.70;99.90
21602;DHT22;10963;50.934;4.668;2023-01-06T03:37:29;11.50;99.90
21602;DHT22;10963;50.934;4.668;2023-01-06T03:42:55;11.50;99.90
21602;DHT22;10963;50.934;4.668;2023-01-06T03:53:54;11.60;99.90
21602;DHT22;10963;50.934;4.668;2023-01-06T03:56:28;11.50;99.90
21602;DHT22;10963;50.934;4.668;2023-01-06T03:59:01;11.40;99.90
21602;DHT22;10963;50.934;4.668;2023-01-06T04:01:28;11.40;99.90
21602;DHT22;10963;50.934;4.668;2023-01-06T04:03:57;11.40;99.90
21602;DHT22;10963;50.934;4.668;2023-01-06T04:06:25;11.30;99.90
21602;DHT22;10963;50.934;4.668;2023-01-06T04:08:53;11.20;99.90
21602;DHT22;10963;50.934;4.668;2023-01-06T04:11:21;11.10;99.90
21602;DHT22;10963;50.934;4.668;2023-01-06T04:14:08;11.10;99.90
21602;DHT22;10963;50.934;4.668;2023-01-06T04:16:38;11.10;99.90
21602;DHT22;10963;50.934;4.668;2023-01-06T04:19:09;11.10;99.90
21602;DHT22;10963;50.934;4.668;2023-01-06T04:21:37;11.10;99.90
21602;DHT22;10963;50.934;4.668;2023-01-06T04:24:03;11.20;99.90
21602;DHT22;10963;50.934;4.668;2023-01-06T04:26:28;11.30;99.90
21602;DHT22;10963;50.934;4.668;2023-01-06T04:28:54;11.30;99.90
21602;DHT22;10963;50.934;4.668;2023-01-06T04:31:20;11.20;99.90
21602;DHT22;10963;50.934;4.668;2023-01-06T04:33:45;11.20;99.90
21602;DHT22;10963;50.934;4.668;2023-01-06T04:36:11;11.20;99.90
21602;DHT22;10963;50.934;4.668;2023-01-06T04:38:37;11.10;99.90
21602;DHT22;10963;50.934;4.668;2023-01-06T04:41:02;11.10;99.90
21602;DHT22;10963;50.934;4.668;2023-01-06T04:43:31;11.10;99.90
21602;DHT22;10963;50.934;4.668;2023-01-06T04:45:57;11.10;99.90
21602;DHT22;10963;50.934;4.668;2023-01-06T04:48:28;11.00;99.90
21602;DHT22;10963;50.934;4.668;2023-01-06T04:51:00;11.00;99.90
21602;DHT22;10963;50.934;4.668;2023-01-06T04:53:31;11.10;99.90
21602;DHT22;10963;50.934;4.668;2023-01-06T04:56:04;11.10;99.90
21602;DHT22;10963;50.934;4.668;2023-01-06T04:58:33;11.10;99.90
21602;DHT22;10963;50.934;4.668;2023-01-06T05:01:07;11.00;99.90
21602;DHT22;10963;50.934;4.668;2023-01-06T05:03:36;11.00;99.90
21602;DHT22;10963;50.934;4.668;2023-01-06T05:06:09;11.00;99.90
21602;DHT22;10963;50.934;4.668;2023-01-06T05:08:36;10.80;99.90
21602;DHT22;10963;50.934;4.668;2023-01-06T05:11:08;10.90;99.90
21602;DHT22;10963;50.934;4.668;2023-01-06T05:13:39;10.90;99.90
21602;DHT22;10963;50.934;4.668;2023-01-06T05:16:11;11.00;99.90
21602;DHT22;10963;50.934;4.668;2023-01-06T05:18:38;11.00;99.90
21602;DHT22;10963;50.934;4.668;2023-01-06T05:21:04;10.90;99.90
21602;DHT22;10963;50.934;4.668;2023-01-06T05:23:30;10.80;99.90
21602;DHT22;10963;50.934;4.668;2023-01-06T05:25:58;10.90;99.90
21602;DHT22;10963;50.934;4.668;2023-01-06T05:28:24;10.90;99.90
21602;DHT22;10963;50.934;4.668;2023-01-06T05:31:03;10.90;99.90
21602;DHT22;10963;50.934;4.668;2023-01-06T05:33:31;11.00;99.90
21602;DHT22;10963;50.934;4.668;2023-01-06T05:36:04;11.00;99.90
21602;DHT22;10963;50.934;4.668;2023-01-06T05:38:33;11.00;99.90
21602;DHT22;10963;50.934;4.668;2023-01-06T05:41:01;11.10;99.90
21602;DHT22;10963;50.934;4.668;2023-01-06T05:43:35;11.10;99.90
21602;DHT22;10963;50.934;4.668;2023-01-06T05:46:08;11.10;99.90
21602;DHT22;10963;50.934;4.668;2023-01-06T05:48:36;11.10;99.90
21602;DHT22;10963;50.934;4.668;2023-01-06T05:51:04;11.20;99.90
21602;DHT22;10963;50.934;4.668;2023-01-06T05:53:31;11.30;99.90
21602;DHT22;10963;50.934;4.668;2023-01-06T05:56:03;11.40;99.90
21602;DHT22;10963;50.934;4.668;2023-01-06T05:58:34;11.40;99.90
21602;DHT22;10963;50.934;4.668;2023-01-06T06:01:05;11.40;99.90
21602;DHT22;10963;50.934;4.668;2023-01-06T06:03:33;11.30;99.90
21602;DHT22;10963;50.934;4.668;2023-01-06T06:06:06;11.30;99.90
21602;DHT22;10963;50.934;4.668;2023-01-06T06:08:32;11.40;99.90
21602;DHT22;10963;50.934;4.668;2023-01-06T06:11:09;11.40;99.90
21602;DHT22;10963;50.934;4.668;2023-01-06T06:13:36;11.50;99.90
21602;DHT22;10963;50.934;4.668;2023-01-06T06:16:08;11.50;99.90
21602;DHT22;10963;50.934;4.668;2023-01-06T06:18:35;11.50;99.90
21602;DHT22;10963;50.934;4.668;2023-01-06T06:21:07;11.50;99.90
21602;DHT22;10963;50.934;4.668;2023-01-06T06:23:34;11.40;99.90
21602;DHT22;10963;50.934;4.668;2023-01-06T06:26:00;11.40;99.90
21602;DHT22;10963;50.934;4.668;2023-01-06T06:28:29;11.40;99.90
21602;DHT22;10963;50.934;4.668;2023-01-06T06:31:05;11.40;99.90
21602;DHT22;10963;50.934;4.668;2023-01-06T06:33:32;11.30;99.90
21602;DHT22;10963;50.934;4.668;2023-01-06T06:35:59;11.50;99.90
21602;DHT22;10963;50.934;4.668;2023-01-06T06:38:26;11.40;99.90
21602;DHT22;10963;50.934;4.668;2023-01-06T06:40:52;11.40;99.90
21602;DHT22;10963;50.934;4.668;2023-01-06T06:43:22;11.40;99.90
21602;DHT22;10963;50.934;4.668;2023-01-06T06:45:51;11.40;99.90
21602;DHT22;10963;50.934;4.668;2023-01-06T06:48:16;11.40;99.90
21602;DHT22;10963;50.934;4.668;2023-01-06T06:50:49;11.40;99.90
21602;DHT22;10963;50.934;4.668;2023-01-06T06:53:20;11.50;99.90
21602;DHT22;10963;50.934;4.668;2023-01-06T06:55:47;11.50;99.90
21602;DHT22;10963;50.934;4.668;2023-01-06T06:58:15;11.40;99.90
21602;DHT22;10963;50.934;4.668;2023-01-06T07:00:45;11.40;99.90
21602;DHT22;10963;50.934;4.668;2023-01-06T07:03:11;11.40;99.90
21602;DHT22;10963;50.934;4.668;2023-01-06T07:05:39;11.40;99.90
21602;DHT22;10963;50.934;4.668;2023-01-06T07:08:10;11.50;99.90
21602;DHT22;10963;50.934;4.668;2023-01-06T07:10:36;11.60;99.90
21602;DHT22;10963;50.934;4.668;2023-01-06T07:13:02;11.70;99.90
21602;DHT22;10963;50.934;4.668;2023-01-06T07:15:33;11.70;99.90
21602;DHT22;10963;50.934;4.668;2023-01-06T07:18:03;11.60;99.90
21602;DHT22;10963;50.934;4.668;2023-01-06T07:20:33;11.70;99.90
21602;DHT22;10963;50.934;4.668;2023-01-06T07:23:02;11.80;99.90
21602;DHT22;10963;50.934;4.668;2023-01-06T07:25:30;11.90;99.90
21602;DHT22;10963;50.934;4.668;2023-01-06T07:28:00;11.90;99.90
21602;DHT22;10963;50.934;4.668;2023-01-06T07:30:32;11.90;99.90
21602;DHT22;10963;50.934;4.668;2023-01-06T07:33:01;11.90;99.90
21602;DHT22;10963;50.934;4.668;2023-01-06T07:35:27;11.90;99.90
21602;DHT22;10963;50.934;4.668;2023-01-06T07:38:00;11.80;99.90
21602;DHT22;10963;50.934;4.668;2023-01-06T07:40:26;11.70;99.90
21602;DHT22;10963;50.934;4.668;2023-01-06T07:42:51;11.90;99.90
21602;DHT22;10963;50.934;4.668;2023-01-06T07:45:17;12.00;99.90
21602;DHT22;10963;50.934;4.668;2023-01-06T07:47:43;11.90;99.90
21602;DHT22;10963;50.934;4.668;2023-01-06T07:50:08;12.00;99.90
21602;DHT22;10963;50.934;4.668;2023-01-06T07:52:37;12.10;99.90
21602;DHT22;10963;50.934;4.668;2023-01-06T07:55:08;12.10;99.90
21602;DHT22;10963;50.934;4.668;2023-01-06T07:57:34;11.90;99.90
21602;DHT22;10963;50.934;4.668;2023-01-06T08:00:00;11.90;99.90
21602;DHT22;10963;50.934;4.668;2023-01-06T08:02:26;12.00;99.90
21602;DHT22;10963;50.934;4.668;2023-01-06T08:04:51;12.00;99.90
21602;DHT22;10963;50.934;4.668;2023-01-06T08:07:22;12.00;99.90
21602;DHT22;10963;50.934;4.668;2023-01-06T08:09:47;12.00;99.90
21602;DHT22;10963;50.934;4.668;2023-01-06T08:12:15;12.00;99.90
21602;DHT22;10963;50.934;4.668;2023-01-06T08:14:41;11.90;99.90
21602;DHT22;10963;50.934;4.668;2023-01-06T08:17:07;11.90;99.90
21602;DHT22;10963;50.934;4.668;2023-01-06T08:19:32;11.90;99.90
21602;DHT22;10963;50.934;4.668;2023-01-06T08:21:58;12.00;99.90
21602;DHT22;10963;50.934;4.668;2023-01-06T08:24:26;12.10;99.90
21602;DHT22;10963;50.934;4.668;2023-01-06T08:26:58;12.00;99.90
21602;DHT22;10963;50.934;4.668;2023-01-06T08:29:26;12.00;99.90
21602;DHT22;10963;50.934;4.668;2023-01-06T08:31:54;12.10;99.90
21602;DHT22;10963;50.934;4.668;2023-01-06T08:34:20;12.20;99.90
21602;DHT22;10963;50.934;4.668;2023-01-06T08:36:48;12.30;99.90
21602;DHT22;10963;50.934;4.668;2023-01-06T08:39:16;12.40;99.90
21602;DHT22;10963;50.934;4.668;2023-01-06T08:41:42;12.30;99.90
21602;DHT22;10963;50.934;4.668;2023-01-06T08:44:08;12.40;99.90
21602;DHT22;10963;50.934;4.668;2023-01-06T08:46:34;12.20;99.90
21602;DHT22;10963;50.934;4.668;2023-01-06T08:48:59;12.30;99.90
21602;DHT22;10963;50.934;4.668;2023-01-06T08:51:27;12.30;99.90
21602;DHT22;10963;50.934;4.668;2023-01-06T08:53:56;12.20;99.90
21602;DHT22;10963;50.934;4.668;2023-01-06T08:56:28;12.20;99.90
21602;DHT22;10963;50.934;4.668;2023-01-06T08:58:57;12.10;99.90
21602;DHT22;10963;50.934;4.668;2023-01-06T09:01:28;12.10;99.90
21602;DHT22;10963;50.934;4.668;2023-01-06T09:03:54;12.10;99.90
21602;DHT22;10963;50.934;4.668;2023-01-06T09:06:21;12.10;99.90
21602;DHT22;10963;50.934;4.668;2023-01-06T09:08:48;12.10;99.90
21602;DHT22;10963;50.934;4.668;2023-01-06T09:11:14;12.00;99.90
21602;DHT22;10963;50.934;4.668;2023-01-06T09:13:41;12.00;99.90
21602;DHT22;10963;50.934;4.668;2023-01-06T09:16:10;12.00;99.90
21602;DHT22;10963;50.934;4.668;2023-01-06T09:18:39;11.90;99.90
21602;DHT22;10963;50.934;4.668;2023-01-06T09:21:12;12.00;99.90
21602;DHT22;10963;50.934;4.668;2023-01-06T09:23:38;11.90;99.90
21602;DHT22;10963;50.934;4.668;2023-01-06T09:26:08;12.00;99.90
21602;DHT22;10963;50.934;4.668;2023-01-06T09:28:36;12.20;99.90
21602;DHT22;10963;50.934;4.668;2023-01-06T09:31:08;12.40;99.90
21602;DHT22;10963;50.934;4.668;2023-01-06T09:33:39;12.40;99.90
21602;DHT22;10963;50.934;4.668;2023-01-06T09:36:05;12.40;99.90
21602;DHT22;10963;50.934;4.668;2023-01-06T09:38:34;12.60;99.90
21602;DHT22;10963;50.934;4.668;2023-01-06T09:46:41;12.60;99.90
21602;DHT22;10963;50.934;4.668;2023-01-06T09:49:17;12.60;99.90
21602;DHT22;10963;50.934;4.668;2023-01-06T09:51:45;12.80;99.90
21602;DHT22;10963;50.934;4.668;2023-01-06T09:57:28;12.50;99.90
21602;DHT22;10963;50.934;4.668;2023-01-06T10:00:03;12.50;99.90
21602;DHT22;10963;50.934;4.668;2023-01-06T10:02:40;12.40;99.90
21602;DHT22;10963;50.934;4.668;2023-01-06T10:05:20;12.50;99.90
21602;DHT22;10963;50.934;4.668;2023-01-06T10:08:02;12.60;99.90
21602;DHT22;10963;50.934;4.668;2023-01-06T10:10:55;12.50;99.90
21602;DHT22;10963;50.934;4.668;2023-01-06T10:21:33;12.40;99.90
21602;DHT22;10963;50.934;4.668;2023-01-06T10:26:57;12.50;99.90
21602;DHT22;10963;50.934;4.668;2023-01-06T10:29:27;12.40;99.90
21602;DHT22;10963;50.934;4.668;2023-01-06T10:31:58;12.40;99.90
21602;DHT22;10963;50.934;4.668;2023-01-06T10:34:26;12.40;99.90
21602;DHT22;10963;50.934;4.668;2023-01-06T10:39:43;12.40;99.90
21602;DHT22;10963;50.934;4.668;2023-01-06T10:45:13;12.50;99.90
21602;DHT22;10963;50.934;4.668;2023-01-06T10:47:41;12.50;99.90
21602;DHT22;10963;50.934;4.668;2023-01-06T10:50:17;12.50;99.90
21602;DHT22;10963;50.934;4.668;2023-01-06T10:52:44;12.50;99.90
21602;DHT22;10963;50.934;4.668;2023-01-06T10:55:38;12.50;99.90
21602;DHT22;10963;50.934;4.668;2023-01-06T11:03:32;12.20;99.90
21602;DHT22;10963;50.934;4.668;2023-01-06T11:06:27;12.10;99.90
21602;DHT22;10963;50.934;4.668;2023-01-06T11:09:04;12.20;99.90
21602;DHT22;10963;50.934;4.668;2023-01-06T11:11:33;12.20;99.90
21602;DHT22;10963;50.934;4.668;2023-01-06T11:14:17;12.20;99.90
21602;DHT22;10963;50.934;4.668;2023-01-06T11:16:54;12.30;99.90
21602;DHT22;10963;50.934;4.668;2023-01-06T11:19:42;12.40;99.90
21602;DHT22;10963;50.934;4.668;2023-01-06T11:24:58;12.60;99.90
21602;DHT22;10963;50.934;4.668;2023-01-06T11:27:24;12.70;99.90
21602;DHT22;10963;50.934;4.668;2023-01-06T11:29:54;12.70;99.90
21602;DHT22;10963;50.934;4.668;2023-01-06T11:32:23;12.60;99.90
21602;DHT22;10963;50.934;4.668;2023-01-06T11:35:00;12.70;99.90
21602;DHT22;10963;50.934;4.668;2023-01-06T11:37:47;12.70;99.90
21602;DHT22;10963;50.934;4.668;2023-01-06T11:40:43;12.80;99.90
21602;DHT22;10963;50.934;4.668;2023-01-06T11:43:14;12.80;99.90
21602;DHT22;10963;50.934;4.668;2023-01-06T11:45:59;12.80;99.90
21602;DHT22;10963;50.934;4.668;2023-01-06T11:48:32;12.70;99.90
21602;DHT22;10963;50.934;4.668;2023-01-06T11:51:03;12.80;99.90
21602;DHT22;10963;50.934;4.668;2023-01-06T11:53:30;12.90;99.90
21602;DHT22;10963;50.934;4.668;2023-01-06T11:56:03;13.00;99.90
21602;DHT22;10963;50.934;4.668;2023-01-06T11:58:54;13.10;99.90
21602;DHT22;10963;50.934;4.668;2023-01-06T12:04:41;13.20;99.90
21602;DHT22;10963;50.934;4.668;2023-01-06T12:07:18;13.30;99.90
21602;DHT22;10963;50.934;4.668;2023-01-06T12:09:46;13.60;99.90
21602;DHT22;10963;50.934;4.668;2023-01-06T12:12:22;13.50;99.90
21602;DHT22;10963;50.934;4.668;2023-01-06T12:14:49;13.30;99.90
21602;DHT22;10963;50.934;4.668;2023-01-06T12:22:59;13.30;99.90
21602;DHT22;10963;50.934;4.668;2023-01-06T12:25:37;13.30;99.90
21602;DHT22;10963;50.934;4.668;2023-01-06T12:28:31;13.20;99.90
21602;DHT22;10963;50.934;4.668;2023-01-06T12:39:04;12.70;99.90
21602;DHT22;10963;50.934;4.668;2023-01-06T12:49:57;13.00;99.90
21602;DHT22;10963;50.934;4.668;2023-01-06T12:52:40;13.00;99.90
21602;DHT22;10963;50.934;4.668;2023-01-06T12:55:15;13.00;99.90
21602;DHT22;10963;50.934;4.668;2023-01-06T12:58:06;13.10;99.90
21602;DHT22;10963;50.934;4.668;2023-01-06T13:00:48;12.90;99.90
21602;DHT22;10963;50.934;4.668;2023-01-06T13:03:30;12.90;99.90
21602;DHT22;10963;50.934;4.668;2023-01-06T13:06:40;12.80;99.90
21602;DHT22;10963;50.934;4.668;2023-01-06T13:20:41;13.30;99.90
21602;DHT22;10963;50.934;4.668;2023-01-06T13:34:30;13.40;99.90
21602;DHT22;10963;50.934;4.668;2023-01-06T13:42:40;13.50;99.90
21602;DHT22;10963;50.934;4.668;2023-01-06T13:45:17;13.20;99.90
21602;DHT22;10963;50.934;4.668;2023-01-06T13:47:45;13.20;99.90
21602;DHT22;10963;50.934;4.668;2023-01-06T13:50:19;12.90;99.90
21602;DHT22;10963;50.934;4.668;2023-01-06T13:52:47;13.10;99.90
21602;DHT22;10963;50.934;4.668;2023-01-06T13:55:33;13.10;99.90
21602;DHT22;10963;50.934;4.668;2023-01-06T14:01:10;13.00;99.90
21602;DHT22;10963;50.934;4.668;2023-01-06T14:03:42;13.00;99.90
21602;DHT22;10963;50.934;4.668;2023-01-06T14:08:54;13.00;99.90
21602;DHT22;10963;50.934;4.668;2023-01-06T14:11:36;13.00;99.90
21602;DHT22;10963;50.934;4.668;2023-01-06T14:14:18;13.00;99.90
21602;DHT22;10963;50.934;4.668;2023-01-06T14:16:50;12.90;99.90
21602;DHT22;10963;50.934;4.668;2023-01-06T14:19:30;13.10;99.90
21602;DHT22;10963;50.934;4.668;2023-01-06T14:22:24;13.00;99.90
21602;DHT22;10963;50.934;4.668;2023-01-06T14:25:03;12.80;99.90
21602;DHT22;10963;50.934;4.668;2023-01-06T14:30:22;12.60;99.90
21602;DHT22;10963;50.934;4.668;2023-01-06T14:35:30;12.60;99.90
21602;DHT22;10963;50.934;4.668;2023-01-06T14:38:01;12.60;99.90
21602;DHT22;10963;50.934;4.668;2023-01-06T14:40:33;12.70;99.90
21602;DHT22;10963;50.934;4.668;2023-01-06T14:43:20;12.80;99.90
21602;DHT22;10963;50.934;4.668;2023-01-06T14:45:56;12.60;99.90
21602;DHT22;10963;50.934;4.668;2023-01-06T14:48:27;12.40;99.90
21602;DHT22;10963;50.934;4.668;2023-01-06T14:50:54;12.50;99.90
21602;DHT22;10963;50.934;4.668;2023-01-06T14:53:36;12.60;99.90
21602;DHT22;10963;50.934;4.668;2023-01-06T14:56:04;12.50;99.90
21602;DHT22;10963;50.934;4.668;2023-01-06T14:58:34;12.50;99.90
21602;DHT22;10963;50.934;4.668;2023-01-06T15:01:05;12.40;99.90
21602;DHT22;10963;50.934;4.668;2023-01-06T15:03:34;12.40;99.90
21602;DHT22;10963;50.934;4.668;2023-01-06T15:06:20;12.40;99.90
21602;DHT22;10963;50.934;4.668;2023-01-06T15:08:47;12.50;99.90
21602;DHT22;10963;50.934;4.668;2023-01-06T15:11:30;12.30;99.90
21602;DHT22;10963;50.934;4.668;2023-01-06T15:14:02;12.30;99.90
21602;DHT22;10963;50.934;4.668;2023-01-06T15:16:37;12.20;99.90
21602;DHT22;10963;50.934;4.668;2023-01-06T15:19:10;12.30;99.90
21602;DHT22;10963;50.934;4.668;2023-01-06T15:21:42;12.30;99.90
21602;DHT22;10963;50.934;4.668;2023-01-06T15:24:20;12.30;99.90
21602;DHT22;10963;50.934;4.668;2023-01-06T15:26:55;12.30;99.90
21602;DHT22;10963;50.934;4.668;2023-01-06T15:29:26;12.40;99.90
21602;DHT22;10963;50.934;4.668;2023-01-06T15:31:53;12.40;99.90
21602;DHT22;10963;50.934;4.668;2023-01-06T15:34:34;12.20;99.90
21602;DHT22;10963;50.934;4.668;2023-01-06T15:37:01;12.10;99.90
21602;DHT22;10963;50.934;4.668;2023-01-06T15:39:32;12.00;99.90
21602;DHT22;10963;50.934;4.668;2023-01-06T15:42:04;11.90;99.90
21602;DHT22;10963;50.934;4.668;2023-01-06T15:44:38;11.90;99.90
21602;DHT22;10963;50.934;4.668;2023-01-06T15:52:06;11.80;99.90
21602;DHT22;10963;50.934;4.668;2023-01-06T15:54:42;11.80;99.90
21602;DHT22;10963;50.934;4.668;2023-01-06T15:57:13;11.80;99.90
21602;DHT22;10963;50.934;4.668;2023-01-06T15:59:42;11.70;99.90
21602;DHT22;10963;50.934;4.668;2023-01-06T16:02:21;11.70;99.90
21602;DHT22;10963;50.934;4.668;2023-01-06T16:04:49;11.70;99.90
21602;DHT22;10963;50.934;4.668;2023-01-06T16:07:36;11.70;99.90
21602;DHT22;10963;50.934;4.668;2023-01-06T16:10:30;11.90;99.90
21602;DHT22;10963;50.934;4.668;2023-01-06T16:18:34;11.80;99.90
21602;DHT22;10963;50.934;4.668;2023-01-06T16:23:38;11.90;99.90
21602;DHT22;10963;50.934;4.668;2023-01-06T16:26:08;11.90;99.90
21602;DHT22;10963;50.934;4.668;2023-01-06T16:28:41;11.90;99.90
21602;DHT22;10963;50.934;4.668;2023-01-06T16:31:26;11.90;99.90
21602;DHT22;10963;50.934;4.668;2023-01-06T16:33:52;11.90;99.90
21602;DHT22;10963;50.934;4.668;2023-01-06T16:36:26;11.80;99.90
21602;DHT22;10963;50.934;4.668;2023-01-06T16:38:54;11.80;99.90
21602;DHT22;10963;50.934;4.668;2023-01-06T16:41:22;11.80;99.90
21602;DHT22;10963;50.934;4.668;2023-01-06T16:43:48;11.80;99.90
21602;DHT22;10963;50.934;4.668;2023-01-06T16:46:24;11.90;99.90
21602;DHT22;10963;50.934;4.668;2023-01-06T16:48:53;11.80;99.90
21602;DHT22;10963;50.934;4.668;2023-01-06T16:51:19;11.90;99.90
21602;DHT22;10963;50.934;4.668;2023-01-06T16:53:48;11.90;99.90
21602;DHT22;10963;50.934;4.668;2023-01-06T16:56:20;11.90;99.90
21602;DHT22;10963;50.934;4.668;2023-01-06T16:58:47;11.90;99.90
21602;DHT22;10963;50.934;4.668;2023-01-06T17:01:20;11.90;99.90
21602;DHT22;10963;50.934;4.668;2023-01-06T17:03:54;11.90;99.90
21602;DHT22;10963;50.934;4.668;2023-01-06T17:06:26;11.90;99.90
21602;DHT22;10963;50.934;4.668;2023-01-06T17:08:57;11.90;99.90
21602;DHT22;10963;50.934;4.668;2023-01-06T17:11:28;12.00;99.90
21602;DHT22;10963;50.934;4.668;2023-01-06T17:13:59;12.00;99.90
21602;DHT22;10963;50.934;4.668;2023-01-06T17:16:34;11.80;99.90
21602;DHT22;10963;50.934;4.668;2023-01-06T17:19:14;11.80;99.90
21602;DHT22;10963;50.934;4.668;2023-01-06T17:21:46;11.80;99.90
21602;DHT22;10963;50.934;4.668;2023-01-06T17:24:17;11.70;99.90
21602;DHT22;10963;50.934;4.668;2023-01-06T17:29:22;11.80;99.90
21602;DHT22;10963;50.934;4.668;2023-01-06T17:31:56;11.70;99.90
21602;DHT22;10963;50.934;4.668;2023-01-06T17:34:30;11.70;99.90
21602;DHT22;10963;50.934;4.668;2023-01-06T17:37:09;11.80;99.90
21602;DHT22;10963;50.934;4.668;2023-01-06T17:39:40;11.80;99.90
21602;DHT22;10963;50.934;4.668;2023-01-06T17:44:46;11.80;99.90
21602;DHT22;10963;50.934;4.668;2023-01-06T17:55:02;11.80;99.90
21602;DHT22;10963;50.934;4.668;2023-01-06T17:57:55;11.80;99.90
21602;DHT22;10963;50.934;4.668;2023-01-06T18:00:33;11.80;99.90
21602;DHT22;10963;50.934;4.668;2023-01-06T18:03:17;11.80;99.90
21602;DHT22;10963;50.934;4.668;2023-01-06T18:08:13;11.90;99.90
21602;DHT22;10963;50.934;4.668;2023-01-06T18:10:50;11.90;99.90
21602;DHT22;10963;50.934;4.668;2023-01-06T18:15:55;11.90;99.90
21602;DHT22;10963;50.934;4.668;2023-01-06T18:23:47;11.80;99.90
21602;DHT22;10963;50.934;4.668;2023-01-06T18:29:16;11.90;99.90
21602;DHT22;10963;50.934;4.668;2023-01-06T18:31:48;11.80;99.90
21602;DHT22;10963;50.934;4.668;2023-01-06T18:34:38;11.80;99.90
21602;DHT22;10963;50.934;4.668;2023-01-06T18:37:07;11.90;99.90
21602;DHT22;10963;50.934;4.668;2023-01-06T18:39:39;11.90;99.90
21602;DHT22;10963;50.934;4.668;2023-01-06T18:42:27;11.90;99.90
21602;DHT22;10963;50.934;4.668;2023-01-06T18:45:16;11.90;99.90
21602;DHT22;10963;50.934;4.668;2023-01-06T18:47:48;11.80;99.90
21602;DHT22;10963;50.934;4.668;2023-01-06T18:52:46;11.60;99.90
21602;DHT22;10963;50.934;4.668;2023-01-06T18:55:35;11.70;99.90
21602;DHT22;10963;50.934;4.668;2023-01-06T18:58:16;11.60;99.90
21602;DHT22;10963;50.934;4.668;2023-01-06T19:00:44;11.60;99.90
21602;DHT22;10963;50.934;4.668;2023-01-06T19:05:36;11.60;99.90